createdAt,value
2022-09-02T00:00:08.692Z,2.90
2022-09-02T00:00:53.121Z,2.50
2022-09-02T00:01:39.735Z,2.80
2022-09-02T00:02:13.919Z,2.50
2022-09-02T00:02:50.596Z,2.70
2022-09-02T00:03:32.078Z,2.60
2022-09-02T00:04:08.409Z,2.80
2022-09-02T00:04:43.345Z,2.50
2022-09-02T00:05:20.381Z,2.60
2022-09-02T00:05:53.513Z,3.10
2022-09-02T00:06:27.916Z,2.80
2022-09-02T00:07:01.289Z,2.60
2022-09-02T00:07:34.945Z,2.80
2022-09-02T00:08:09.015Z,2.70
2022-09-02T00:08:43.414Z,2.10
2022-09-02T00:09:20.855Z,2.50
2022-09-02T00:09:54.991Z,3.30
2022-09-02T00:10:28.212Z,2.60
2022-09-02T00:11:04.247Z,2.70
2022-09-02T00:11:40.177Z,3.00
2022-09-02T00:12:13.642Z,2.90
2022-09-02T00:12:47.187Z,2.70
2022-09-02T00:13:20.971Z,2.70
2022-09-02T00:13:55.628Z,3.30
2022-09-02T00:14:33.322Z,3.00
2022-09-02T00:15:07.123Z,2.80
2022-09-02T00:15:41.358Z,2.70
2022-09-02T00:16:15.072Z,2.70
2022-09-02T00:16:52.541Z,2.50
2022-09-02T00:17:25.673Z,2.60
2022-09-02T00:17:59.065Z,3.10
2022-09-02T00:18:33.873Z,2.80
2022-09-02T00:19:08.886Z,2.60
2022-09-02T00:19:42.082Z,2.40
2022-09-02T00:20:15.243Z,2.40
2022-09-02T00:20:49.362Z,2.50
2022-09-02T00:21:22.661Z,2.50
2022-09-02T00:21:57.498Z,2.60
2022-09-02T00:22:30.541Z,2.40
2022-09-02T00:23:03.757Z,2.60
2022-09-02T00:23:37.342Z,3.00
2022-09-02T00:24:10.477Z,2.50
2022-09-02T00:24:43.530Z,2.70
2022-09-02T00:25:17.355Z,2.30
2022-09-02T00:25:51.022Z,2.50
2022-09-02T00:26:24.924Z,2.60
2022-09-02T00:26:58.343Z,2.60
2022-09-02T00:27:31.682Z,2.40
2022-09-02T00:28:06.682Z,2.60
2022-09-02T00:28:49.069Z,2.60
2022-09-02T00:29:29.646Z,2.70
2022-09-02T00:30:03.200Z,2.40
2022-09-02T00:30:36.824Z,2.70
2022-09-02T00:31:10.472Z,2.40
2022-09-02T00:31:45.634Z,2.60
2022-09-02T00:32:19.305Z,3.10
2022-09-02T00:32:52.480Z,2.90
2022-09-02T00:33:25.911Z,3.00
2022-09-02T00:33:59.079Z,2.50
2022-09-02T00:34:33.310Z,2.80
2022-09-02T00:35:07.563Z,2.40
2022-09-02T00:35:41.112Z,2.80
2022-09-02T00:36:14.319Z,2.80
2022-09-02T00:36:47.501Z,2.60
2022-09-02T00:37:21.208Z,2.70
2022-09-02T00:37:54.581Z,2.40
2022-09-02T00:38:28.992Z,2.80
2022-09-02T00:39:03.231Z,2.40
2022-09-02T00:39:36.466Z,2.30
2022-09-02T00:40:12.084Z,2.60
2022-09-02T00:40:50.433Z,2.80
2022-09-02T00:41:26.986Z,2.70
2022-09-02T00:42:01.687Z,3.10
2022-09-02T00:42:35.786Z,2.40
2022-09-02T00:43:09.626Z,3.10
2022-09-02T00:43:47.844Z,2.80
2022-09-02T00:44:21.372Z,2.70
2022-09-02T00:44:54.504Z,2.90
2022-09-02T00:45:28.035Z,2.70
2022-09-02T00:46:01.470Z,2.90
2022-09-02T00:46:35.130Z,2.20
2022-09-02T00:47:08.632Z,2.40
2022-09-02T00:47:41.975Z,2.20
2022-09-02T00:48:15.170Z,2.30
2022-09-02T00:49:02.600Z,2.40
2022-09-02T00:49:40.738Z,2.60
2022-09-02T00:50:18.208Z,2.50
2022-09-02T00:50:52.103Z,2.40
2022-09-02T00:51:29.234Z,2.70
2022-09-02T00:52:30.788Z,2.60
2022-09-02T00:53:09.332Z,2.60
2022-09-02T00:53:44.923Z,2.40
2022-09-02T00:54:23.202Z,2.40
2022-09-02T00:55:01.848Z,2.60
2022-09-02T00:55:46.875Z,2.50
2022-09-02T00:56:25.744Z,3.10
2022-09-02T00:57:01.576Z,2.70
2022-09-02T00:57:41.908Z,2.60
2022-09-02T00:58:25.557Z,2.60
2022-09-02T00:59:01.285Z,2.60
2022-09-02T00:59:58.894Z,2.60
2022-09-02T01:00:36.399Z,2.90
2022-09-02T01:01:11.968Z,2.80
2022-09-02T01:01:45.759Z,3.60
2022-09-02T01:02:19.590Z,3.20
2022-09-02T01:03:03.128Z,2.40
2022-09-02T01:03:36.227Z,2.50
2022-09-02T01:04:09.470Z,2.60
2022-09-02T01:04:43.464Z,3.10
2022-09-02T01:05:19.095Z,2.60
2022-09-02T01:05:54.213Z,2.60
2022-09-02T01:06:33.308Z,2.60
2022-09-02T01:07:07.411Z,2.70
2022-09-02T01:07:40.897Z,2.60
2022-09-02T01:08:19.727Z,2.50
2022-09-02T01:09:15.007Z,2.90
2022-09-02T01:09:48.773Z,3.20
2022-09-02T01:10:29.097Z,2.60
2022-09-02T01:11:06.785Z,2.80
2022-09-02T01:11:45.186Z,3.10
2022-09-02T01:12:18.618Z,2.60
2022-09-02T01:12:56.602Z,2.90
2022-09-02T01:13:31.890Z,2.90
2022-09-02T01:14:07.663Z,3.20
2022-09-02T01:14:40.942Z,2.60
2022-09-02T01:15:14.845Z,3.10
2022-09-02T01:15:55.364Z,2.80
2022-09-02T01:16:39.448Z,2.50
2022-09-02T01:17:19.846Z,2.70
2022-09-02T01:17:54.292Z,2.50
2022-09-02T01:18:30.416Z,2.60
2022-09-02T01:19:10.578Z,2.60
2022-09-02T01:19:49.460Z,2.70
2022-09-02T01:20:26.982Z,2.40
2022-09-02T01:21:01.054Z,2.60
2022-09-02T01:21:34.686Z,2.80
2022-09-02T01:22:20.870Z,2.70
2022-09-02T01:22:55.160Z,3.10
2022-09-02T01:23:32.350Z,3.20
2022-09-02T01:24:08.573Z,2.60
2022-09-02T01:24:41.972Z,3.10
2022-09-02T01:25:20.083Z,2.60
2022-09-02T01:25:53.374Z,3.20
2022-09-02T01:26:26.663Z,3.10
2022-09-02T01:27:00.571Z,2.50
2022-09-02T01:27:34.146Z,3.00
2022-09-02T01:28:11.446Z,2.50
2022-09-02T01:28:44.707Z,3.20
2022-09-02T01:29:18.247Z,3.00
2022-09-02T01:29:58.257Z,2.40
2022-09-02T01:30:32.185Z,2.70
2022-09-02T01:31:06.139Z,2.70
2022-09-02T01:31:40.525Z,2.60
2022-09-02T01:32:13.729Z,3.00
2022-09-02T01:32:46.758Z,2.80
2022-09-02T01:33:22.407Z,3.30
2022-09-02T01:33:56.142Z,2.80
2022-09-02T01:34:29.651Z,2.60
2022-09-02T01:35:03.054Z,2.70
2022-09-02T01:35:37.033Z,2.80
2022-09-02T01:36:10.127Z,3.10
2022-09-02T01:36:44.554Z,2.60
2022-09-02T01:37:18.592Z,2.80
2022-09-02T01:37:56.101Z,2.40
2022-09-02T01:38:29.685Z,2.60
2022-09-02T01:39:02.775Z,2.90
2022-09-02T01:39:35.945Z,3.20
2022-09-02T01:40:12.517Z,2.70
2022-09-02T01:40:49.065Z,2.50
2022-09-02T01:41:22.165Z,2.80
2022-09-02T01:41:55.836Z,2.80
2022-09-02T01:42:29.053Z,2.20
2022-09-02T01:43:09.635Z,2.30
2022-09-02T01:43:42.792Z,2.30
2022-09-02T01:44:18.075Z,3.20
2022-09-02T01:44:51.860Z,2.80
2022-09-02T01:45:25.337Z,2.50
2022-09-02T01:46:00.137Z,2.50
2022-09-02T01:46:34.722Z,2.40
2022-09-02T01:47:07.933Z,2.70
2022-09-02T01:47:41.777Z,2.50
2022-09-02T01:48:21.241Z,2.50
2022-09-02T01:48:55.103Z,2.20
2022-09-02T01:49:28.337Z,2.00
2022-09-02T01:50:01.464Z,2.70
2022-09-02T01:50:36.026Z,2.30
2022-09-02T01:51:09.201Z,2.30
2022-09-02T01:51:42.373Z,2.30
2022-09-02T01:52:17.421Z,2.50
2022-09-02T01:52:50.742Z,2.80
2022-09-02T01:53:24.621Z,2.20
2022-09-02T01:53:57.788Z,2.50
2022-09-02T01:54:31.018Z,2.40
2022-09-02T01:55:04.866Z,2.70
2022-09-02T01:55:38.130Z,2.60
2022-09-02T01:56:11.371Z,2.20
2022-09-02T01:56:44.456Z,2.40
2022-09-02T01:57:17.797Z,2.60
2022-09-02T01:57:51.448Z,2.60
2022-09-02T01:58:25.032Z,2.40
2022-09-02T01:58:58.479Z,2.60
2022-09-02T01:59:31.769Z,2.10
2022-09-02T02:00:08.044Z,2.50
2022-09-02T02:00:41.751Z,2.00
2022-09-02T02:01:15.863Z,2.40
2022-09-02T02:01:49.291Z,2.50
2022-09-02T02:02:23.846Z,2.40
2022-09-02T02:02:58.261Z,2.50
2022-09-02T02:03:32.862Z,2.10
2022-09-02T02:04:09.191Z,2.10
2022-09-02T02:04:48.052Z,2.50
2022-09-02T02:05:21.496Z,2.40
2022-09-02T02:05:55.577Z,2.50
2022-09-02T02:06:29.012Z,2.30
2022-09-02T02:07:02.186Z,2.60
2022-09-02T02:07:35.741Z,2.70
2022-09-02T02:08:09.030Z,2.70
2022-09-02T02:08:43.713Z,2.10
2022-09-02T02:09:17.527Z,2.00
2022-09-02T02:09:51.877Z,2.10
2022-09-02T02:10:25.138Z,2.30
2022-09-02T02:10:58.418Z,2.00
2022-09-02T02:11:32.181Z,1.90
2022-09-02T02:12:06.595Z,2.60
2022-09-02T02:12:40.566Z,2.50
2022-09-02T02:13:13.997Z,2.10
2022-09-02T02:13:47.479Z,2.30
2022-09-02T02:14:21.032Z,2.20
2022-09-02T02:14:55.029Z,2.50
2022-09-02T02:16:01.023Z,2.30
2022-09-02T02:16:34.505Z,2.40
2022-09-02T02:17:07.939Z,2.50
2022-09-02T02:17:41.655Z,2.60
2022-09-02T02:18:14.806Z,2.80
2022-09-02T02:18:48.073Z,2.40
2022-09-02T02:19:21.576Z,2.30
2022-09-02T02:19:54.811Z,3.20
2022-09-02T02:20:28.136Z,2.80
2022-09-02T02:21:01.900Z,2.40
2022-09-02T02:21:35.005Z,2.10
2022-09-02T02:22:08.975Z,2.80
2022-09-02T02:22:44.005Z,3.10
2022-09-02T02:23:18.273Z,2.60
2022-09-02T02:23:52.296Z,2.60
2022-09-02T02:24:25.744Z,2.70
2022-09-02T02:24:58.985Z,2.90
2022-09-02T02:25:32.923Z,3.00
2022-09-02T02:26:06.296Z,2.60
2022-09-02T02:26:39.681Z,2.20
2022-09-02T02:27:12.887Z,2.40
2022-09-02T02:27:46.335Z,3.10
2022-09-02T02:28:19.681Z,2.40
2022-09-02T02:28:53.072Z,2.40
2022-09-02T02:29:26.315Z,2.50
2022-09-02T02:29:59.921Z,2.50
2022-09-02T02:30:33.121Z,2.60
2022-09-02T02:31:07.163Z,2.70
2022-09-02T02:31:42.041Z,2.40
2022-09-02T02:32:18.566Z,2.60
2022-09-02T02:32:52.062Z,2.60
2022-09-02T02:33:26.167Z,2.30
2022-09-02T02:34:10.871Z,2.60
2022-09-02T02:34:45.710Z,2.40
2022-09-02T02:35:20.396Z,2.30
2022-09-02T02:35:53.871Z,2.60
2022-09-02T02:36:29.054Z,2.50
2022-09-02T02:37:02.426Z,2.20
2022-09-02T02:37:35.580Z,2.60
2022-09-02T02:38:08.841Z,2.50
2022-09-02T02:38:42.144Z,2.40
2022-09-02T02:39:15.504Z,2.50
2022-09-02T02:39:48.765Z,2.30
2022-09-02T02:40:24.699Z,2.60
2022-09-02T02:40:58.327Z,2.00
2022-09-02T02:41:31.992Z,2.60
2022-09-02T02:42:05.468Z,2.40
2022-09-02T02:42:40.135Z,2.60
2022-09-02T02:43:13.427Z,2.60
2022-09-02T02:43:48.030Z,2.70
2022-09-02T02:44:21.385Z,2.50
2022-09-02T02:44:55.184Z,2.70
2022-09-02T02:45:28.472Z,2.80
2022-09-02T02:46:01.949Z,2.90
2022-09-02T02:46:36.035Z,2.90
2022-09-02T02:47:10.162Z,2.70
2022-09-02T02:47:46.297Z,2.70
2022-09-02T02:48:19.484Z,2.40
2022-09-02T02:48:52.587Z,3.00
2022-09-02T02:49:27.605Z,2.50
2022-09-02T02:50:00.844Z,2.60
2022-09-02T02:50:34.102Z,2.10
2022-09-02T02:51:08.981Z,2.40
2022-09-02T02:51:42.748Z,2.40
2022-09-02T02:52:15.967Z,2.60
2022-09-02T02:52:49.736Z,2.10
2022-09-02T02:53:23.230Z,2.30
2022-09-02T02:53:58.845Z,2.60
2022-09-02T02:54:35.329Z,2.50
2022-09-02T02:55:10.888Z,2.40
2022-09-02T02:55:45.263Z,2.70
2022-09-02T02:56:23.105Z,2.90
2022-09-02T02:56:56.237Z,2.90
2022-09-02T02:57:29.772Z,2.70
2022-09-02T02:58:02.988Z,2.50
2022-09-02T02:58:37.039Z,2.20
2022-09-02T02:59:10.209Z,3.00
2022-09-02T02:59:43.300Z,2.90
2022-09-02T03:00:18.756Z,2.50
2022-09-02T03:00:52.052Z,2.80
2022-09-02T03:01:25.257Z,2.70
2022-09-02T03:01:58.708Z,2.30
2022-09-02T03:02:33.596Z,2.80
2022-09-02T03:03:10.313Z,2.30
2022-09-02T03:03:44.956Z,2.80
2022-09-02T03:04:18.134Z,2.50
2022-09-02T03:04:54.450Z,2.70
2022-09-02T03:05:28.561Z,2.40
2022-09-02T03:06:02.057Z,2.70
2022-09-02T03:06:36.058Z,2.40
2022-09-02T03:07:09.342Z,3.00
2022-09-02T03:07:43.327Z,2.50
2022-09-02T03:08:19.858Z,2.60
2022-09-02T03:08:53.745Z,3.20
2022-09-02T03:09:27.045Z,2.40
2022-09-02T03:10:00.217Z,2.40
2022-09-02T03:10:34.087Z,2.70
2022-09-02T03:11:08.219Z,2.70
2022-09-02T03:11:41.449Z,2.50
2022-09-02T03:12:15.322Z,3.10
2022-09-02T03:12:51.261Z,2.70
2022-09-02T03:13:26.120Z,2.50
2022-09-02T03:14:00.857Z,2.70
2022-09-02T03:14:34.170Z,2.60
2022-09-02T03:15:09.372Z,2.10
2022-09-02T03:15:42.971Z,2.40
2022-09-02T03:16:16.970Z,2.40
2022-09-02T03:16:50.581Z,2.80
2022-09-02T03:17:23.949Z,2.10
2022-09-02T03:17:57.440Z,2.10
2022-09-02T03:18:30.693Z,2.80
2022-09-02T03:19:04.452Z,2.40
2022-09-02T03:19:37.716Z,2.60
2022-09-02T03:20:11.627Z,2.30
2022-09-02T03:20:45.666Z,2.50
2022-09-02T03:21:19.475Z,2.50
2022-09-02T03:21:52.823Z,2.60
2022-09-02T03:22:29.138Z,2.30
2022-09-02T03:23:03.620Z,2.30
2022-09-02T03:23:37.304Z,2.10
2022-09-02T03:24:12.384Z,2.80
2022-09-02T03:24:45.544Z,2.20
2022-09-02T03:25:21.215Z,2.60
2022-09-02T03:25:54.662Z,2.20
2022-09-02T03:26:28.056Z,2.70
2022-09-02T03:27:01.251Z,2.50
2022-09-02T03:27:34.887Z,2.60
2022-09-02T03:28:08.254Z,2.60
2022-09-02T03:28:42.016Z,2.30
2022-09-02T03:29:15.171Z,2.60
2022-09-02T03:29:48.361Z,2.50
2022-09-02T03:30:27.498Z,2.10
2022-09-02T03:31:00.666Z,2.50
2022-09-02T03:31:33.967Z,2.30
2022-09-02T03:32:07.938Z,2.40
2022-09-02T03:32:41.372Z,2.20
2022-09-02T03:33:14.612Z,2.40
2022-09-02T03:33:47.909Z,3.40
2022-09-02T03:34:21.060Z,2.60
2022-09-02T03:34:54.759Z,2.60
2022-09-02T03:35:29.463Z,3.60
2022-09-02T03:36:02.915Z,2.30
2022-09-02T03:36:39.568Z,2.40
2022-09-02T03:37:12.792Z,2.30
2022-09-02T03:37:46.801Z,2.60
2022-09-02T03:38:20.275Z,2.80
2022-09-02T03:38:54.383Z,2.90
2022-09-02T03:39:27.927Z,1.80
2022-09-02T03:40:07.091Z,1.80
2022-09-02T03:40:41.291Z,2.10
2022-09-02T03:41:14.689Z,2.40
2022-09-02T03:41:50.431Z,2.50
2022-09-02T03:42:23.684Z,2.30
2022-09-02T03:43:00.194Z,2.40
2022-09-02T03:43:33.934Z,2.10
2022-09-02T03:44:07.907Z,2.40
2022-09-02T03:44:41.857Z,2.70
2022-09-02T03:45:16.512Z,2.50
2022-09-02T03:45:50.344Z,2.60
2022-09-02T03:46:24.388Z,2.60
2022-09-02T03:46:57.551Z,2.20
2022-09-02T03:47:31.126Z,2.30
2022-09-02T03:48:04.793Z,2.50
2022-09-02T03:48:38.027Z,2.40
2022-09-02T03:49:11.390Z,2.60
2022-09-02T03:49:44.526Z,2.70
2022-09-02T03:50:20.404Z,2.70
2022-09-02T03:50:53.607Z,2.60
2022-09-02T03:51:27.197Z,2.60
2022-09-02T03:52:00.774Z,2.30
2022-09-02T03:52:34.867Z,2.40
2022-09-02T03:53:09.588Z,2.40
2022-09-02T03:53:53.192Z,2.50
2022-09-02T03:54:26.669Z,2.80
2022-09-02T03:55:00.688Z,2.80
2022-09-02T03:55:37.030Z,2.80
2022-09-02T03:56:13.243Z,2.80
2022-09-02T03:56:46.673Z,2.60
2022-09-02T03:57:20.919Z,2.60
2022-09-02T03:57:54.247Z,3.00
2022-09-02T03:58:28.778Z,2.20
2022-09-02T03:59:03.147Z,2.60
2022-09-02T03:59:37.041Z,2.20
2022-09-02T04:00:12.170Z,3.00
2022-09-02T04:00:49.781Z,2.70
2022-09-02T04:01:25.388Z,3.00
2022-09-02T04:02:04.861Z,3.00
2022-09-02T04:02:38.462Z,2.70
2022-09-02T04:03:12.342Z,2.90
2022-09-02T04:03:46.803Z,3.00
2022-09-02T04:04:22.881Z,3.30
2022-09-02T04:04:56.476Z,2.90
2022-09-02T04:05:30.476Z,2.30
2022-09-02T04:06:04.039Z,2.70
2022-09-02T04:06:37.830Z,2.40
2022-09-02T04:07:11.059Z,2.60
2022-09-02T04:07:47.129Z,2.60
2022-09-02T04:08:21.090Z,2.60
2022-09-02T04:08:54.232Z,2.30
2022-09-02T04:09:27.767Z,2.60
2022-09-02T04:10:02.062Z,2.70
2022-09-02T04:10:38.272Z,2.40
2022-09-02T04:11:16.603Z,2.10
2022-09-02T04:11:50.102Z,2.50
2022-09-02T04:12:23.588Z,2.50
2022-09-02T04:13:05.370Z,2.70
2022-09-02T04:13:38.633Z,2.30
2022-09-02T04:14:12.470Z,2.00
2022-09-02T04:14:45.766Z,2.40
2022-09-02T04:15:20.244Z,2.20
2022-09-02T04:15:53.462Z,2.30
2022-09-02T04:16:30.194Z,1.90
2022-09-02T04:17:04.482Z,2.40
2022-09-02T04:17:39.793Z,2.40
2022-09-02T04:18:13.299Z,2.10
2022-09-02T04:18:46.828Z,2.50
2022-09-02T04:19:20.166Z,2.20
2022-09-02T04:19:55.056Z,2.40
2022-09-02T04:20:28.279Z,2.00
2022-09-02T04:21:01.938Z,2.50
2022-09-02T04:21:37.945Z,2.20
2022-09-02T04:22:11.331Z,2.30
2022-09-02T04:22:44.674Z,2.40
2022-09-02T04:23:17.930Z,2.00
2022-09-02T04:23:52.776Z,2.50
2022-09-02T04:24:25.915Z,2.40
2022-09-02T04:24:59.293Z,2.20
2022-09-02T04:25:32.648Z,2.20
2022-09-02T04:26:14.873Z,2.60
2022-09-02T04:26:48.124Z,2.30
2022-09-02T04:27:21.489Z,2.60
2022-09-02T04:27:54.730Z,2.40
2022-09-02T04:28:27.982Z,2.50
2022-09-02T04:29:02.177Z,2.00
2022-09-02T04:29:35.663Z,2.30
2022-09-02T04:30:10.184Z,2.40
2022-09-02T04:30:44.089Z,2.60
2022-09-02T04:31:20.446Z,2.00
2022-09-02T04:31:55.142Z,2.60
2022-09-02T04:32:28.379Z,2.50
2022-09-02T04:33:01.656Z,2.60
2022-09-02T04:33:36.103Z,2.40
2022-09-02T04:34:09.766Z,2.60
2022-09-02T04:34:42.973Z,2.70
2022-09-02T04:35:16.303Z,2.10
2022-09-02T04:35:49.694Z,2.60
2022-09-02T04:36:24.139Z,2.40
2022-09-02T04:36:57.542Z,2.40
2022-09-02T04:37:30.830Z,1.90
2022-09-02T04:38:03.997Z,2.00
2022-09-02T04:38:37.500Z,2.10
2022-09-02T04:39:10.709Z,2.30
2022-09-02T04:39:43.986Z,2.60
2022-09-02T04:40:17.533Z,2.70
2022-09-02T04:40:50.786Z,2.50
2022-09-02T04:41:27.935Z,2.40
2022-09-02T04:42:01.229Z,2.60
2022-09-02T04:42:34.597Z,2.70
2022-09-02T04:43:08.293Z,1.90
2022-09-02T04:43:41.862Z,2.50
2022-09-02T04:44:15.103Z,2.40
2022-09-02T04:44:48.264Z,2.60
2022-09-02T04:45:24.578Z,2.50
2022-09-02T04:45:59.909Z,2.80
2022-09-02T04:46:34.539Z,2.60
2022-09-02T04:47:08.451Z,2.80
2022-09-02T04:47:41.620Z,2.40
2022-09-02T04:48:14.890Z,2.60
2022-09-02T04:48:48.400Z,2.70
2022-09-02T04:49:21.691Z,2.70
2022-09-02T04:49:55.348Z,2.90
2022-09-02T04:50:28.735Z,2.70
2022-09-02T04:51:12.573Z,2.60
2022-09-02T04:51:45.916Z,2.60
2022-09-02T04:52:21.212Z,2.80
2022-09-02T04:52:55.294Z,2.30
2022-09-02T04:53:28.565Z,2.70
2022-09-02T04:54:02.291Z,2.20
2022-09-02T04:54:35.987Z,2.60
2022-09-02T04:55:10.916Z,2.10
2022-09-02T04:55:44.407Z,2.60
2022-09-02T04:56:21.732Z,2.40
2022-09-02T04:56:55.032Z,2.90
2022-09-02T04:57:28.131Z,2.60
2022-09-02T04:58:02.117Z,2.50
2022-09-02T04:58:36.620Z,2.30
2022-09-02T04:59:10.490Z,2.40
2022-09-02T04:59:43.835Z,2.70
2022-09-02T05:00:19.173Z,2.70
2022-09-02T05:00:52.447Z,3.30
2022-09-02T05:01:28.684Z,2.80
2022-09-02T05:02:02.301Z,2.90
2022-09-02T05:02:36.086Z,3.30
2022-09-02T05:03:12.037Z,3.60
2022-09-02T05:03:46.427Z,3.30
2022-09-02T05:04:19.848Z,2.70
2022-09-02T05:04:53.330Z,3.00
2022-09-02T05:05:26.580Z,3.00
2022-09-02T05:06:05.638Z,2.90
2022-09-02T05:06:44.077Z,2.90
2022-09-02T05:07:17.754Z,3.10
2022-09-02T05:07:51.044Z,3.70
2022-09-02T05:08:24.287Z,3.40
2022-09-02T05:09:00.848Z,3.10
2022-09-02T05:09:34.236Z,2.90
2022-09-02T05:10:08.186Z,3.30
2022-09-02T05:10:41.393Z,3.30
2022-09-02T05:11:18.963Z,2.60
2022-09-02T05:11:52.508Z,3.00
2022-09-02T05:12:28.340Z,3.00
2022-09-02T05:13:01.491Z,3.00
2022-09-02T05:13:34.677Z,3.40
2022-09-02T05:14:08.065Z,3.00
2022-09-02T05:14:41.459Z,2.90
2022-09-02T05:15:14.794Z,3.10
2022-09-02T05:15:48.011Z,3.50
2022-09-02T05:16:29.140Z,3.20
2022-09-02T05:17:07.339Z,2.60
2022-09-02T05:17:42.176Z,3.10
2022-09-02T05:18:15.477Z,3.20
2022-09-02T05:18:49.743Z,3.00
2022-09-02T05:19:24.460Z,3.40
2022-09-02T05:19:57.726Z,3.60
2022-09-02T05:20:31.613Z,2.90
2022-09-02T05:21:06.725Z,3.80
2022-09-02T05:21:42.256Z,3.90
2022-09-02T05:22:15.657Z,3.70
2022-09-02T05:22:51.491Z,3.50
2022-09-02T05:23:25.069Z,3.50
2022-09-02T05:23:58.533Z,3.20
2022-09-02T05:24:31.891Z,3.00
2022-09-02T05:25:09.047Z,3.40
2022-09-02T05:25:42.384Z,3.30
2022-09-02T05:26:15.624Z,3.10
2022-09-02T05:26:50.489Z,3.60
2022-09-02T05:27:23.766Z,3.50
2022-09-02T05:28:00.104Z,4.10
2022-09-02T05:28:34.158Z,3.30
2022-09-02T05:29:08.590Z,3.50
2022-09-02T05:29:45.602Z,3.10
2022-09-02T05:30:19.030Z,3.30
2022-09-02T05:30:52.417Z,3.30
2022-09-02T05:31:27.425Z,3.30
2022-09-02T05:32:00.775Z,3.20
2022-09-02T05:32:37.740Z,3.60
2022-09-02T05:33:13.710Z,3.20
2022-09-02T05:33:49.274Z,3.10
2022-09-02T05:34:22.713Z,3.30
2022-09-02T05:34:56.713Z,3.80
2022-09-02T05:35:30.187Z,3.30
2022-09-02T05:36:04.382Z,3.70
2022-09-02T05:36:37.743Z,3.30
2022-09-02T05:37:10.931Z,3.60
2022-09-02T05:37:44.301Z,3.40
2022-09-02T05:38:17.467Z,3.10
2022-09-02T05:38:52.206Z,2.90
2022-09-02T05:39:25.413Z,3.40
2022-09-02T05:39:58.692Z,3.30
2022-09-02T05:40:34.596Z,3.70
2022-09-02T05:41:16.452Z,3.90
2022-09-02T05:41:49.612Z,3.40
2022-09-02T05:42:22.957Z,3.30
2022-09-02T05:42:56.185Z,4.00
2022-09-02T05:43:29.428Z,3.60
2022-09-02T05:44:05.001Z,4.30
2022-09-02T05:44:38.901Z,4.20
2022-09-02T05:45:12.023Z,4.10
2022-09-02T05:45:49.299Z,4.10
2022-09-02T05:46:24.323Z,4.30
2022-09-02T05:46:58.298Z,4.00
2022-09-02T05:47:31.463Z,4.00
2022-09-02T05:48:24.782Z,4.50
2022-09-02T05:49:12.799Z,4.30
2022-09-02T05:49:46.139Z,3.80
2022-09-02T05:50:20.938Z,4.20
2022-09-02T05:50:57.478Z,4.80
2022-09-02T05:51:34.800Z,4.00
2022-09-02T05:52:10.479Z,4.20
2022-09-02T05:52:44.176Z,4.40
2022-09-02T05:53:17.376Z,4.40
2022-09-02T05:53:55.331Z,4.40
2022-09-02T05:54:32.210Z,5.60
2022-09-02T05:55:05.973Z,5.30
2022-09-02T05:55:39.476Z,5.10
2022-09-02T05:56:12.892Z,5.00
2022-09-02T05:56:48.965Z,5.50
2022-09-02T05:57:23.440Z,5.50
2022-09-02T05:57:56.592Z,5.70
2022-09-02T05:58:30.305Z,5.80
2022-09-02T05:59:03.738Z,5.20
2022-09-02T05:59:40.492Z,5.70
2022-09-02T06:00:17.729Z,5.10
2022-09-02T06:00:52.206Z,5.70
2022-09-02T06:01:25.426Z,6.30
2022-09-02T06:02:00.078Z,6.30
2022-09-02T06:02:33.391Z,5.90
2022-09-02T06:03:07.353Z,5.70
2022-09-02T06:03:41.633Z,6.20
2022-09-02T06:04:16.515Z,5.80
2022-09-02T06:04:52.410Z,6.00
2022-09-02T06:05:25.749Z,6.60
2022-09-02T06:06:04.367Z,6.20
2022-09-02T06:06:39.697Z,6.40
2022-09-02T06:07:14.341Z,7.40
2022-09-02T06:07:47.738Z,6.10
2022-09-02T06:08:21.020Z,6.70
2022-09-02T06:08:54.314Z,7.70
2022-09-02T06:09:27.940Z,7.10
2022-09-02T06:10:02.440Z,7.60
2022-09-02T06:10:41.881Z,7.90
2022-09-02T06:11:15.320Z,7.40
2022-09-02T06:11:52.141Z,7.40
2022-09-02T06:12:26.422Z,7.00
2022-09-02T06:12:59.877Z,7.20
2022-09-02T06:13:36.209Z,6.80
2022-09-02T06:14:09.428Z,7.40
2022-09-02T06:14:43.261Z,7.20
2022-09-02T06:15:17.825Z,7.00
2022-09-02T06:15:51.708Z,7.20
2022-09-02T06:16:26.593Z,7.20
2022-09-02T06:17:00.867Z,6.90
2022-09-02T06:17:34.052Z,7.00
2022-09-02T06:18:07.777Z,7.70
2022-09-02T06:18:42.449Z,7.60
2022-09-02T06:19:19.685Z,7.40
2022-09-02T06:19:53.867Z,6.90
2022-09-02T06:20:29.433Z,6.40
2022-09-02T06:21:04.812Z,6.30
2022-09-02T06:21:39.076Z,7.40
2022-09-02T06:22:12.407Z,6.80
2022-09-02T06:22:46.218Z,7.20
2022-09-02T06:23:19.562Z,6.20
2022-09-02T06:23:52.696Z,7.30
2022-09-02T06:24:27.657Z,6.90
2022-09-02T06:25:00.835Z,6.40
2022-09-02T06:25:38.036Z,6.10
2022-09-02T06:26:13.442Z,5.80
2022-09-02T06:26:46.784Z,5.80
2022-09-02T06:27:19.993Z,6.30
2022-09-02T06:27:53.237Z,6.10
2022-09-02T06:28:26.751Z,6.00
2022-09-02T06:29:00.955Z,6.80
2022-09-02T06:29:35.079Z,5.90
2022-09-02T06:30:09.008Z,6.00
2022-09-02T06:30:44.948Z,5.70
2022-09-02T06:31:20.999Z,5.70
2022-09-02T06:31:54.340Z,5.60
2022-09-02T06:32:27.472Z,6.00
2022-09-02T06:33:03.747Z,6.20
2022-09-02T06:33:38.369Z,5.30
2022-09-02T06:34:14.055Z,6.00
2022-09-02T06:34:47.356Z,6.00
2022-09-02T06:35:20.761Z,5.10
2022-09-02T06:35:53.863Z,6.00
2022-09-02T06:36:29.153Z,5.60
2022-09-02T06:37:02.516Z,5.70
2022-09-02T06:37:36.052Z,6.10
2022-09-02T06:38:11.373Z,5.90
2022-09-02T06:38:48.776Z,5.70
2022-09-02T06:39:23.924Z,6.00
2022-09-02T06:39:57.387Z,5.70
2022-09-02T06:40:30.796Z,5.70
2022-09-02T06:41:04.323Z,5.90
2022-09-02T06:41:39.838Z,5.20
2022-09-02T06:42:13.180Z,5.20
2022-09-02T06:42:48.482Z,5.30
2022-09-02T06:43:22.325Z,4.90
2022-09-02T06:43:58.159Z,5.30
2022-09-02T06:44:33.466Z,5.10
2022-09-02T06:45:07.989Z,5.30
2022-09-02T06:45:41.739Z,5.30
2022-09-02T06:46:22.182Z,6.00
2022-09-02T06:46:59.102Z,5.20
2022-09-02T06:47:32.354Z,5.30
2022-09-02T06:48:07.463Z,5.00
2022-09-02T06:48:41.877Z,6.30
2022-09-02T06:49:17.088Z,5.40
2022-09-02T06:49:50.383Z,5.60
2022-09-02T06:50:23.705Z,5.30
2022-09-02T06:50:57.600Z,6.10
2022-09-02T06:51:43.402Z,5.30
2022-09-02T06:52:16.732Z,5.70
2022-09-02T06:52:50.199Z,5.10
2022-09-02T06:53:24.649Z,5.10
2022-09-02T06:53:59.839Z,5.50
2022-09-02T06:54:34.456Z,4.80
2022-09-02T06:55:08.057Z,4.80
2022-09-02T06:55:45.175Z,4.70
2022-09-02T06:56:19.391Z,5.10
2022-09-02T06:56:53.234Z,5.20
2022-09-02T06:57:28.531Z,5.30
2022-09-02T06:58:07.794Z,5.30
2022-09-02T06:58:41.241Z,5.60
2022-09-02T06:59:17.922Z,5.10
2022-09-02T06:59:51.187Z,5.10
2022-09-02T07:00:24.350Z,5.30
2022-09-02T07:00:57.690Z,5.20
2022-09-02T07:01:32.846Z,4.90
2022-09-02T07:02:06.427Z,5.40
2022-09-02T07:02:39.924Z,4.70
2022-09-02T07:03:32.650Z,5.60
2022-09-02T07:04:24.555Z,5.60
2022-09-02T07:05:15.779Z,5.60
2022-09-02T07:05:59.557Z,5.20
2022-09-02T07:06:53.910Z,4.70
2022-09-02T07:07:29.190Z,4.50
2022-09-02T07:08:02.663Z,4.80
2022-09-02T07:08:41.333Z,5.50
2022-09-02T07:09:18.278Z,5.60
2022-09-02T07:09:52.914Z,5.20
2022-09-02T07:10:26.280Z,5.00
2022-09-02T07:10:59.566Z,4.70
2022-09-02T07:11:33.247Z,5.80
2022-09-02T07:12:06.759Z,5.50
2022-09-02T07:12:44.319Z,5.20
2022-09-02T07:13:17.882Z,5.40
2022-09-02T07:13:51.590Z,5.00
2022-09-02T07:14:30.462Z,4.90
2022-09-02T07:15:04.967Z,5.60
2022-09-02T07:15:41.280Z,5.20
2022-09-02T07:16:22.699Z,4.60
2022-09-02T07:17:00.597Z,5.10
2022-09-02T07:17:34.950Z,4.60
2022-09-02T07:18:09.363Z,5.20
2022-09-02T07:18:44.281Z,4.60
2022-09-02T07:19:20.970Z,5.40
2022-09-02T07:19:56.285Z,5.50
2022-09-02T07:20:29.456Z,6.20
2022-09-02T07:21:03.226Z,5.90
2022-09-02T07:21:41.361Z,5.90
2022-09-02T07:22:14.477Z,6.10
2022-09-02T07:22:52.608Z,5.80
2022-09-02T07:23:25.940Z,5.40
2022-09-02T07:23:59.932Z,6.90
2022-09-02T07:24:33.303Z,6.20
2022-09-02T07:25:07.926Z,6.10
2022-09-02T07:25:42.099Z,6.10
2022-09-02T07:26:17.349Z,6.20
2022-09-02T07:26:55.380Z,6.80
2022-09-02T07:27:29.509Z,5.90
2022-09-02T07:28:02.935Z,6.60
2022-09-02T07:28:36.024Z,5.80
2022-09-02T07:29:11.655Z,6.40
2022-09-02T07:29:48.835Z,5.90
2022-09-02T07:30:22.296Z,5.50
2022-09-02T07:30:59.674Z,5.70
2022-09-02T07:31:33.437Z,5.60
2022-09-02T07:32:06.893Z,5.40
2022-09-02T07:32:40.074Z,5.70
2022-09-02T07:33:14.672Z,5.70
2022-09-02T07:33:49.854Z,5.60
2022-09-02T07:34:24.400Z,5.80
2022-09-02T07:34:58.417Z,5.60
2022-09-02T07:35:31.880Z,4.90
2022-09-02T07:36:10.925Z,5.00
2022-09-02T07:36:46.828Z,5.70
2022-09-02T07:37:20.281Z,4.10
2022-09-02T07:37:53.880Z,4.60
2022-09-02T07:38:27.009Z,4.00
2022-09-02T07:39:00.177Z,4.40
2022-09-02T07:39:33.447Z,4.80
2022-09-02T07:40:08.785Z,4.90
2022-09-02T07:40:44.051Z,4.70
2022-09-02T07:41:17.277Z,4.90
2022-09-02T07:41:52.272Z,4.50
2022-09-02T07:43:06.146Z,4.50
2022-09-02T07:43:41.478Z,4.50
2022-09-02T07:44:15.814Z,3.90
2022-09-02T07:44:49.061Z,5.20
2022-09-02T07:45:22.910Z,3.80